Time;durP1;ratioP1;P1;durP2;ratioP2;P2;SDS_P1;SDS_P2;PMS_P1;PMS_P2;Temp;Humidity;BMP_temperature;BMP_pressure;BME280_temperature;BME280_humidity;BME280_pressure;Samples;Min_cycle;Max_cycle;Signal;HPM_P1;HPM_P2
2023/06/25 00:01:21;;;;;;;;;;;17.90;99.90;;;;;;7309236;19;9435;-74
2023/06/25 00:03:50;;;;;;;;;;;18.00;99.90;;;;;;7309391;19;10051;-74
2023/06/25 00:06:19;;;;;;;;;;;18.00;99.90;;;;;;7308902;19;9313;-74
2023/06/25 00:08:48;;;;;;;;;;;17.90;99.90;;;;;;7307104;19;9793;-74
2023/06/25 00:11:18;;;;;;;;;;;17.90;99.90;;;;;;7309436;19;9458;-74
2023/06/25 00:13:49;;;;;;;;;;;18.00;99.90;;;;;;7307356;19;9515;-74
2023/06/25 00:16:18;;;;;;;;;;;18.00;99.90;;;;;;7307486;19;9262;-74
2023/06/25 00:18:48;;;;;;;;;;;18.00;99.90;;;;;;7309677;19;10171;-74
2023/06/25 00:21:18;;;;;;;;;;;17.90;99.90;;;;;;7308393;19;9277;-74
2023/06/25 00:23:47;;;;;;;;;;;17.90;99.90;;;;;;7309216;19;9949;-74
2023/06/25 00:26:16;;;;;;;;;;;17.60;99.90;;;;;;7316856;19;9276;-74
2023/06/25 00:28:45;;;;;;;;;;;17.70;99.90;;;;;;7327214;19;9235;-74
2023/06/25 00:31:16;;;;;;;;;;;17.70;99.90;;;;;;7307309;19;9124;-74
2023/06/25 00:33:49;;;;;;;;;;;17.80;99.90;;;;;;7307400;19;9479;-74
2023/06/25 00:36:18;;;;;;;;;;;17.80;99.90;;;;;;7307497;19;9245;-75
2023/06/25 00:38:47;;;;;;;;;;;17.70;99.90;;;;;;7308429;19;9553;-74
2023/06/25 00:41:16;;;;;;;;;;;17.60;99.90;;;;;;7306472;19;9574;-74
2023/06/25 00:43:45;;;;;;;;;;;17.70;99.90;;;;;;7307470;19;9468;-74
2023/06/25 00:46:18;;;;;;;;;;;17.70;99.90;;;;;;7308410;19;9394;-74
2023/06/25 00:48:48;;;;;;;;;;;17.70;99.90;;;;;;7310524;19;9443;-74
2023/06/25 00:51:21;;;;;;;;;;;17.70;99.90;;;;;;7310875;19;9341;-74
2023/06/25 00:53:53;;;;;;;;;;;17.70;99.90;;;;;;7307534;19;9662;-74
2023/06/25 00:56:28;;;;;;;;;;;17.70;99.90;;;;;;7306703;19;11778;-74
2023/06/25 00:59:00;;;;;;;;;;;17.80;99.90;;;;;;7308799;19;9953;-74
2023/06/25 01:01:44;;;;;;;;;;;17.70;99.90;;;;;;7306630;19;9352;-75
2023/06/25 01:04:22;;;;;;;;;;;17.70;99.90;;;;;;7307586;19;9184;-74
2023/06/25 01:06:55;;;;;;;;;;;17.80;99.90;;;;;;7305916;19;9255;-74
2023/06/25 01:09:27;;;;;;;;;;;17.70;99.90;;;;;;7306605;19;9233;-74
2023/06/25 01:12:03;;;;;;;;;;;17.60;99.90;;;;;;7306427;19;9307;-74
2023/06/25 01:14:33;;;;;;;;;;;17.60;99.90;;;;;;7305960;19;9507;-74
2023/06/25 01:17:05;;;;;;;;;;;17.60;99.90;;;;;;7307193;19;9354;-74
2023/06/25 01:19:35;;;;;;;;;;;17.50;99.90;;;;;;7307865;19;9951;-74
2023/06/25 01:22:06;;;;;;;;;;;17.50;99.90;;;;;;7304639;19;9258;-74
2023/06/25 01:24:38;;;;;;;;;;;17.40;99.90;;;;;;7305875;19;9568;-74
2023/06/25 01:27:08;;;;;;;;;;;17.40;99.90;;;;;;7308602;19;10095;-74
2023/06/25 01:29:38;;;;;;;;;;;17.40;99.90;;;;;;7305095;19;9210;-74
2023/06/25 01:32:08;;;;;;;;;;;17.20;99.90;;;;;;7306670;19;9075;-74
2023/06/25 01:34:37;;;;;;;;;;;17.30;99.90;;;;;;7304025;19;9791;-74
2023/06/25 01:37:08;;;;;;;;;;;17.20;99.90;;;;;;7305875;19;9442;-74
2023/06/25 01:39:39;;;;;;;;;;;17.30;99.90;;;;;;7303286;19;10769;-74
2023/06/25 01:42:09;;;;;;;;;;;17.30;99.90;;;;;;7307826;19;9242;-74
2023/06/25 01:44:39;;;;;;;;;;;17.20;99.90;;;;;;7303579;19;11439;-74
2023/06/25 01:47:08;;;;;;;;;;;17.10;99.90;;;;;;7306417;19;9622;-74
2023/06/25 01:49:37;;;;;;;;;;;17.00;99.90;;;;;;7304714;19;11958;-74
2023/06/25 01:52:08;;;;;;;;;;;17.00;99.90;;;;;;7310679;19;9823;-74
2023/06/25 01:54:40;;;;;;;;;;;17.00;99.90;;;;;;7303930;19;11268;-74
2023/06/25 01:57:09;;;;;;;;;;;16.90;99.90;;;;;;7306935;19;9078;-74
2023/06/25 01:59:38;;;;;;;;;;;16.90;99.90;;;;;;7303008;19;10956;-74
2023/06/25 02:02:08;;;;;;;;;;;16.90;99.90;;;;;;7304692;19;9385;-73
2023/06/25 02:04:37;;;;;;;;;;;16.90;99.90;;;;;;7304882;19;11389;-74
2023/06/25 02:07:07;;;;;;;;;;;16.80;99.90;;;;;;7303579;19;9741;-74
2023/06/25 02:09:36;;;;;;;;;;;16.80;99.90;;;;;;7307066;19;9333;-73
2023/06/25 02:12:09;;;;;;;;;;;16.80;99.90;;;;;;7305989;19;9158;-74
2023/06/25 02:14:38;;;;;;;;;;;16.90;99.90;;;;;;7310747;19;9253;-74
2023/06/25 02:17:07;;;;;;;;;;;16.90;99.90;;;;;;7305453;19;10905;-74
2023/06/25 02:19:36;;;;;;;;;;;16.90;99.90;;;;;;7304183;19;9316;-74
2023/06/25 02:22:06;;;;;;;;;;;16.90;99.90;;;;;;7304360;19;9487;-74
2023/06/25 02:24:35;;;;;;;;;;;16.80;99.90;;;;;;7303890;19;9452;-74
2023/06/25 02:27:04;;;;;;;;;;;16.80;99.90;;;;;;7303558;19;9023;-74
2023/06/25 02:29:36;;;;;;;;;;;16.70;99.90;;;;;;7304699;19;9533;-74
2023/06/25 02:32:05;;;;;;;;;;;16.80;99.90;;;;;;7308776;19;9433;-74
2023/06/25 02:34:35;;;;;;;;;;;16.80;99.90;;;;;;7310288;19;11813;-74
2023/06/25 02:37:14;;;;;;;;;;;16.80;99.90;;;;;;7310239;19;9308;-74
2023/06/25 02:39:43;;;;;;;;;;;16.70;99.90;;;;;;7310251;19;9301;-74
2023/06/25 02:42:12;;;;;;;;;;;16.70;99.90;;;;;;7311558;19;9288;-74
2023/06/25 02:44:44;;;;;;;;;;;16.80;99.90;;;;;;7310539;19;9502;-74
2023/06/25 02:47:13;;;;;;;;;;;16.70;99.90;;;;;;7309737;19;10396;-74
2023/06/25 02:49:42;;;;;;;;;;;16.80;99.90;;;;;;7308946;19;9528;-74
2023/06/25 02:52:11;;;;;;;;;;;16.80;99.90;;;;;;7315423;19;9233;-74
2023/06/25 02:54:41;;;;;;;;;;;16.80;99.90;;;;;;7308164;19;9368;-74
2023/06/25 02:57:11;;;;;;;;;;;16.80;99.90;;;;;;7310613;19;9383;-74
2023/06/25 02:59:40;;;;;;;;;;;16.60;99.90;;;;;;7309952;19;9233;-74
2023/06/25 03:02:11;;;;;;;;;;;16.70;99.90;;;;;;7311028;19;9355;-74
2023/06/25 03:04:40;;;;;;;;;;;16.60;99.90;;;;;;7310063;19;9426;-74
2023/06/25 03:07:10;;;;;;;;;;;16.80;99.90;;;;;;7310413;19;9300;-74
2023/06/25 03:09:39;;;;;;;;;;;16.70;99.90;;;;;;7308287;19;9276;-74
2023/06/25 03:12:09;;;;;;;;;;;16.70;99.90;;;;;;7311180;19;9418;-74
2023/06/25 03:14:38;;;;;;;;;;;16.70;99.90;;;;;;7309667;19;9379;-74
2023/06/25 03:17:10;;;;;;;;;;;16.80;99.90;;;;;;7309082;19;9281;-74
2023/06/25 03:19:39;;;;;;;;;;;16.70;99.90;;;;;;7309717;19;8997;-74
2023/06/25 03:22:08;;;;;;;;;;;16.70;99.90;;;;;;7308738;19;9446;-74
2023/06/25 03:24:37;;;;;;;;;;;16.80;99.90;;;;;;7310209;19;9252;-74
2023/06/25 03:27:07;;;;;;;;;;;16.70;99.90;;;;;;7309220;19;10186;-74
2023/06/25 03:29:37;;;;;;;;;;;16.80;99.90;;;;;;7313906;19;10201;-74
2023/06/25 03:32:07;;;;;;;;;;;16.80;99.90;;;;;;7312472;19;10115;-74
2023/06/25 03:34:38;;;;;;;;;;;16.70;99.90;;;;;;7309818;19;11278;-74
2023/06/25 03:37:08;;;;;;;;;;;16.70;99.90;;;;;;7309244;19;9254;-74
2023/06/25 03:39:37;;;;;;;;;;;16.70;99.90;;;;;;7309956;19;9245;-74
2023/06/25 03:42:07;;;;;;;;;;;16.70;99.90;;;;;;7309010;19;9234;-74
2023/06/25 03:44:36;;;;;;;;;;;16.70;99.90;;;;;;7309804;19;9000;-74
2023/06/25 03:47:05;;;;;;;;;;;16.80;99.90;;;;;;7310565;19;10170;-74
2023/06/25 03:49:34;;;;;;;;;;;16.80;99.90;;;;;;7309129;19;9507;-74
2023/06/25 03:52:06;;;;;;;;;;;16.80;99.90;;;;;;7315635;19;11278;-74
2023/06/25 03:54:35;;;;;;;;;;;16.90;99.90;;;;;;7308823;19;9334;-74
2023/06/25 03:57:06;;;;;;;;;;;16.90;99.90;;;;;;7311465;19;10141;-74
2023/06/25 03:59:35;;;;;;;;;;;16.90;99.90;;;;;;7309705;19;9110;-74
2023/06/25 04:02:04;;;;;;;;;;;17.00;99.90;;;;;;7312245;19;9241;-74
2023/06/25 04:04:33;;;;;;;;;;;17.00;99.90;;;;;;7309509;19;9419;-74
2023/06/25 04:07:05;;;;;;;;;;;17.00;99.90;;;;;;7309663;19;9274;-74
2023/06/25 04:09:34;;;;;;;;;;;17.00;99.90;;;;;;7306641;19;9245;-74
2023/06/25 04:12:03;;;;;;;;;;;17.00;99.90;;;;;;7309842;19;9541;-74
2023/06/25 04:14:32;;;;;;;;;;;17.10;99.90;;;;;;7306144;19;9423;-74
2023/06/25 04:17:01;;;;;;;;;;;17.10;99.90;;;;;;7309288;19;9139;-74
2023/06/25 04:19:31;;;;;;;;;;;17.10;99.90;;;;;;7306647;19;8945;-74
2023/06/25 04:22:00;;;;;;;;;;;17.20;99.90;;;;;;7307373;19;9353;-74
2023/06/25 04:24:32;;;;;;;;;;;17.20;99.90;;;;;;7306570;19;10051;-74
2023/06/25 04:27:01;;;;;;;;;;;17.20;99.90;;;;;;7307731;19;11006;-74
2023/06/25 04:29:30;;;;;;;;;;;17.20;99.90;;;;;;7307322;19;9251;-74
2023/06/25 04:31:59;;;;;;;;;;;17.30;99.90;;;;;;7307844;19;10174;-74
2023/06/25 04:34:28;;;;;;;;;;;17.30;99.90;;;;;;7306071;19;9426;-74
2023/06/25 04:36:57;;;;;;;;;;;17.30;99.90;;;;;;7303661;19;9178;-74
2023/06/25 04:39:26;;;;;;;;;;;17.30;99.90;;;;;;7307279;19;9518;-74
2023/06/25 04:41:58;;;;;;;;;;;17.30;99.90;;;;;;7308315;19;10151;-74
2023/06/25 04:44:27;;;;;;;;;;;17.40;99.90;;;;;;7305859;19;9465;-74
2023/06/25 04:46:57;;;;;;;;;;;17.40;99.90;;;;;;7306965;19;9217;-74
2023/06/25 04:49:26;;;;;;;;;;;17.50;99.90;;;;;;7306048;19;9253;-74
2023/06/25 04:51:55;;;;;;;;;;;17.60;99.90;;;;;;7310186;19;11254;-74
2023/06/25 04:54:24;;;;;;;;;;;17.60;99.90;;;;;;7305951;19;9262;-74
2023/06/25 04:56:53;;;;;;;;;;;17.60;99.90;;;;;;7304324;19;9567;-74
2023/06/25 04:59:25;;;;;;;;;;;17.70;99.90;;;;;;7307590;19;10070;-74
2023/06/25 05:01:54;;;;;;;;;;;17.70;99.90;;;;;;7304999;19;9367;-74
2023/06/25 05:04:23;;;;;;;;;;;17.70;99.90;;;;;;7305414;19;9844;-74
2023/06/25 05:06:52;;;;;;;;;;;17.80;99.90;;;;;;7306383;19;9460;-74
2023/06/25 05:09:21;;;;;;;;;;;18.00;99.90;;;;;;7305696;19;9575;-74
2023/06/25 05:11:51;;;;;;;;;;;18.20;99.90;;;;;;7308394;19;10051;-74
2023/06/25 05:14:20;;;;;;;;;;;18.80;99.90;;;;;;7303205;19;9636;-74
2023/06/25 05:16:51;;;;;;;;;;;18.80;99.90;;;;;;7305341;19;9245;-74
2023/06/25 05:19:20;;;;;;;;;;;18.70;99.90;;;;;;7304918;19;9958;-74
2023/06/25 05:21:49;;;;;;;;;;;18.70;99.90;;;;;;7306261;19;8944;-74
2023/06/25 05:24:18;;;;;;;;;;;18.60;99.90;;;;;;7303984;19;9428;-74
2023/06/25 05:26:47;;;;;;;;;;;18.50;99.90;;;;;;7304703;19;10560;-74
2023/06/25 05:29:16;;;;;;;;;;;18.50;99.90;;;;;;7305376;19;9245;-74
2023/06/25 05:31:46;;;;;;;;;;;18.40;99.90;;;;;;7305862;19;9221;-74
2023/06/25 05:34:17;;;;;;;;;;;18.50;99.90;;;;;;7305564;19;9274;-74
2023/06/25 05:36:46;;;;;;;;;;;18.50;99.90;;;;;;7302731;19;9386;-74
2023/06/25 05:39:15;;;;;;;;;;;18.60;99.90;;;;;;7305454;19;9112;-74
2023/06/25 05:41:44;;;;;;;;;;;18.50;99.90;;;;;;7305145;19;9477;-74
2023/06/25 05:44:14;;;;;;;;;;;18.70;99.90;;;;;;7306369;19;9547;-74
2023/06/25 05:46:43;;;;;;;;;;;18.80;99.90;;;;;;7304273;19;9013;-74
2023/06/25 05:49:12;;;;;;;;;;;18.80;99.90;;;;;;7309665;19;9102;-74
2023/06/25 05:51:44;;;;;;;;;;;18.90;99.90;;;;;;7309870;19;9264;-74
2023/06/25 05:54:13;;;;;;;;;;;19.00;99.90;;;;;;7305683;19;9301;-74
2023/06/25 05:56:42;;;;;;;;;;;19.00;99.90;;;;;;7301715;19;9357;-74
2023/06/25 05:59:11;;;;;;;;;;;19.00;99.90;;;;;;7306826;19;10787;-74
2023/06/25 06:01:41;;;;;;;;;;;19.20;99.90;;;;;;7304240;19;9550;-74
2023/06/25 06:04:10;;;;;;;;;;;19.30;99.90;;;;;;7305651;19;8944;-74
2023/06/25 06:06:39;;;;;;;;;;;19.40;99.90;;;;;;7305207;19;9257;-74
2023/06/25 06:09:11;;;;;;;;;;;19.40;99.90;;;;;;7314223;19;9249;-74
2023/06/25 06:11:40;;;;;;;;;;;19.50;99.90;;;;;;7311353;19;9056;-74
2023/06/25 06:14:09;;;;;;;;;;;19.60;99.90;;;;;;7313377;19;10198;-74
2023/06/25 06:16:38;;;;;;;;;;;19.60;99.90;;;;;;7310089;19;9035;-74
2023/06/25 06:19:07;;;;;;;;;;;19.70;99.90;;;;;;7312869;19;9809;-74
2023/06/25 06:21:36;;;;;;;;;;;19.80;99.90;;;;;;7312883;19;11000;-74
2023/06/25 06:24:06;;;;;;;;;;;20.00;99.90;;;;;;7313222;19;9547;-74
2023/06/25 06:26:38;;;;;;;;;;;20.10;99.90;;;;;;7313072;19;9330;-74
2023/06/25 06:29:07;;;;;;;;;;;20.10;99.90;;;;;;7311804;19;11011;-74
2023/06/25 06:31:40;;;;;;;;;;;20.20;99.90;;;;;;7312861;19;9368;-74
2023/06/25 06:34:09;;;;;;;;;;;20.40;99.90;;;;;;7311356;19;9507;-74
2023/06/25 06:36:38;;;;;;;;;;;20.40;99.90;;;;;;7311472;19;9561;-74
2023/06/25 06:39:07;;;;;;;;;;;20.60;99.90;;;;;;7311766;19;9163;-74
2023/06/25 06:41:39;;;;;;;;;;;20.70;99.90;;;;;;7312453;19;9268;-74
2023/06/25 06:44:19;;;;;;;;;;;21.10;99.90;;;;;;7311475;19;9325;-75
2023/06/25 06:46:48;;;;;;;;;;;21.30;99.90;;;;;;7311298;19;9398;-74
2023/06/25 06:49:19;;;;;;;;;;;21.20;99.90;;;;;;7311832;19;9226;-74
2023/06/25 06:51:48;;;;;;;;;;;21.10;99.90;;;;;;7315843;19;9313;-74
2023/06/25 06:54:17;;;;;;;;;;;21.20;99.90;;;;;;7309606;19;9001;-75
2023/06/25 06:56:49;;;;;;;;;;;21.20;99.90;;;;;;7310258;19;9273;-74
2023/06/25 06:59:18;;;;;;;;;;;21.30;99.90;;;;;;7311239;19;9266;-74
2023/06/25 07:01:47;;;;;;;;;;;21.40;99.90;;;;;;7308899;19;9175;-74
2023/06/25 07:04:16;;;;;;;;;;;21.80;99.90;;;;;;7311472;19;10656;-74
2023/06/25 07:06:46;;;;;;;;;;;22.70;99.90;;;;;;7309333;19;9447;-74
2023/06/25 07:09:16;;;;;;;;;;;24.00;99.90;;;;;;7312345;19;11130;-74
2023/06/25 07:11:47;;;;;;;;;;;25.00;99.90;;;;;;7310300;19;9317;-74
2023/06/25 07:14:16;;;;;;;;;;;25.00;98.30;;;;;;7313218;19;9311;-75
2023/06/25 07:16:46;;;;;;;;;;;24.80;99.10;;;;;;7307799;19;9576;-74
2023/06/25 07:19:15;;;;;;;;;;;25.70;97.50;;;;;;7312341;19;9245;-75
2023/06/25 07:21:44;;;;;;;;;;;26.80;94.90;;;;;;7309896;19;9559;-75
2023/06/25 07:24:13;;;;;;;;;;;28.00;91.50;;;;;;7310199;19;8945;-75
2023/06/25 07:26:42;;;;;;;;;;;28.60;88.10;;;;;;7309263;19;8944;-74
2023/06/25 07:29:14;;;;;;;;;;;28.60;81.40;;;;;;7310448;19;11666;-75
2023/06/25 07:31:43;;;;;;;;;;;28.50;80.70;;;;;;7308746;19;9286;-75
2023/06/25 07:34:12;;;;;;;;;;;29.30;79.30;;;;;;7313213;19;9135;-74
2023/06/25 07:36:41;;;;;;;;;;;30.40;75.30;;;;;;7314867;19;9283;-75
2023/06/25 07:39:10;;;;;;;;;;;30.10;71.40;;;;;;7310578;19;9368;-75
2023/06/25 07:41:39;;;;;;;;;;;29.40;73.30;;;;;;7309997;19;10054;-75
2023/06/25 07:44:08;;;;;;;;;;;30.90;73.00;;;;;;7308191;19;9431;-75
2023/06/25 07:46:40;;;;;;;;;;;31.20;68.80;;;;;;7308630;19;9183;-75
2023/06/25 07:49:09;;;;;;;;;;;31.40;67.90;;;;;;7309391;19;10160;-75
2023/06/25 07:51:38;;;;;;;;;;;32.20;68.60;;;;;;7313094;19;9306;-75
2023/06/25 07:54:07;;;;;;;;;;;32.30;64.90;;;;;;7308728;19;9383;-74
2023/06/25 07:56:36;;;;;;;;;;;32.40;64.10;;;;;;7306614;19;9291;-75
2023/06/25 07:59:05;;;;;;;;;;;31.30;65.90;;;;;;7308072;19;9257;-75
2023/06/25 08:01:34;;;;;;;;;;;31.40;65.80;;;;;;7308070;19;9269;-75
2023/06/25 08:04:07;;;;;;;;;;;31.70;62.20;;;;;;7308660;19;9709;-75
2023/06/25 08:06:36;;;;;;;;;;;32.20;62.80;;;;;;7306584;19;9331;-75
2023/06/25 08:09:05;;;;;;;;;;;31.60;63.10;;;;;;7307807;19;9547;-75
2023/06/25 08:11:34;;;;;;;;;;;32.40;63.20;;;;;;7307274;19;9241;-75
2023/06/25 08:14:03;;;;;;;;;;;32.40;62.00;;;;;;7310392;19;9178;-75
2023/06/25 08:16:32;;;;;;;;;;;32.50;62.00;;;;;;7307135;19;10103;-75
2023/06/25 08:19:03;;;;;;;;;;;30.50;64.40;;;;;;7308138;19;11459;-75
2023/06/25 08:21:34;;;;;;;;;;;31.70;64.50;;;;;;7305373;19;11502;-75
2023/06/25 08:24:03;;;;;;;;;;;32.70;61.40;;;;;;7309351;19;9245;-74
2023/06/25 08:26:32;;;;;;;;;;;32.70;61.00;;;;;;7306794;19;10166;-75
2023/06/25 08:29:01;;;;;;;;;;;33.10;60.70;;;;;;7306558;19;9262;-74
2023/06/25 08:31:31;;;;;;;;;;;32.60;61.60;;;;;;7307626;19;9348;-75
2023/06/25 08:34:00;;;;;;;;;;;32.30;61.80;;;;;;7309230;19;10126;-75
2023/06/25 08:36:29;;;;;;;;;;;33.00;60.70;;;;;;7307006;19;9094;-75
2023/06/25 08:39:00;;;;;;;;;;;32.90;59.50;;;;;;7307917;19;9276;-75
2023/06/25 08:41:31;;;;;;;;;;;32.50;58.60;;;;;;7306224;19;10126;-75
2023/06/25 08:44:00;;;;;;;;;;;32.80;59.80;;;;;;7308362;19;9257;-75
2023/06/25 08:46:30;;;;;;;;;;;32.80;59.70;;;;;;7308495;19;9286;-75
2023/06/25 08:49:01;;;;;;;;;;;32.90;58.40;;;;;;7306584;19;9253;-75
2023/06/25 08:51:30;;;;;;;;;;;32.80;58.80;;;;;;7312570;19;9422;-75
2023/06/25 08:54:02;;;;;;;;;;;32.60;58.40;;;;;;7307344;19;9378;-75
2023/06/25 08:56:31;;;;;;;;;;;31.90;58.80;;;;;;7305487;19;9124;-75
2023/06/25 08:59:00;;;;;;;;;;;30.20;61.20;;;;;;7305546;19;9916;-75
2023/06/25 09:01:30;;;;;;;;;;;28.70;64.10;;;;;;7305920;19;9470;-75
2023/06/25 09:03:59;;;;;;;;;;;27.70;66.50;;;;;;7305930;19;9419;-75
2023/06/25 09:06:29;;;;;;;;;;;27.10;68.10;;;;;;7306805;19;9945;-75
2023/06/25 09:08:58;;;;;;;;;;;26.80;71.00;;;;;;7306642;19;9307;-75
2023/06/25 09:11:32;;;;;;;;;;;26.70;71.70;;;;;;7305636;19;9269;-75
2023/06/25 09:14:02;;;;;;;;;;;26.50;71.60;;;;;;7307599;19;11678;-75
2023/06/25 09:16:32;;;;;;;;;;;26.50;73.80;;;;;;7308963;19;9237;-75
2023/06/25 09:19:02;;;;;;;;;;;26.40;72.40;;;;;;7311577;19;9683;-75
2023/06/25 09:21:40;;;;;;;;;;;26.40;73.30;;;;;;7306599;19;9294;-74
2023/06/25 09:24:17;;;;;;;;;;;26.40;73.80;;;;;;7307243;19;9396;-75
2023/06/25 09:26:54;;;;;;;;;;;26.40;74.50;;;;;;7305056;19;9646;-75
2023/06/25 09:29:25;;;;;;;;;;;26.40;73.90;;;;;;7309977;19;9280;-75
2023/06/25 09:31:54;;;;;;;;;;;26.30;74.00;;;;;;7306187;19;9376;-75
2023/06/25 09:34:26;;;;;;;;;;;26.30;74.60;;;;;;7306812;19;9355;-75
2023/06/25 09:36:55;;;;;;;;;;;26.40;73.80;;;;;;7306150;19;9261;-75
2023/06/25 09:39:24;;;;;;;;;;;26.40;75.30;;;;;;7308326;19;9375;-75
2023/06/25 09:41:57;;;;;;;;;;;26.30;74.00;;;;;;7310079;19;9347;-75
2023/06/25 09:44:27;;;;;;;;;;;26.30;74.80;;;;;;7313659;19;9464;-75
2023/06/25 09:47:04;;;;;;;;;;;26.40;73.40;;;;;;7314018;19;9250;-75
2023/06/25 09:49:34;;;;;;;;;;;26.40;72.70;;;;;;7313923;19;9201;-75
2023/06/25 09:52:10;;;;;;;;;;;26.50;73.30;;;;;;7316337;19;9290;-75
2023/06/25 09:54:43;;;;;;;;;;;26.50;68.50;;;;;;7313246;19;9277;-75
2023/06/25 09:57:19;;;;;;;;;;;26.60;71.60;;;;;;7313248;19;9858;-75
2023/06/25 09:59:48;;;;;;;;;;;26.60;71.10;;;;;;7314912;19;9291;-74
2023/06/25 10:02:19;;;;;;;;;;;26.60;71.00;;;;;;7313203;19;9326;-75
2023/06/25 10:04:49;;;;;;;;;;;26.60;71.70;;;;;;7311944;19;11448;-75
2023/06/25 10:07:21;;;;;;;;;;;26.60;72.50;;;;;;7311430;19;9446;-74
2023/06/25 10:09:57;;;;;;;;;;;26.60;72.60;;;;;;7310834;19;9742;-75
2023/06/25 10:12:33;;;;;;;;;;;26.60;72.00;;;;;;7312114;19;9328;-75
2023/06/25 10:15:04;;;;;;;;;;;26.60;71.80;;;;;;7310199;19;9273;-75
2023/06/25 10:17:33;;;;;;;;;;;26.60;72.20;;;;;;7310313;19;9282;-75
2023/06/25 10:20:05;;;;;;;;;;;26.70;72.20;;;;;;7310029;19;9539;-75
2023/06/25 10:22:38;;;;;;;;;;;26.60;71.40;;;;;;7313867;19;9244;-75
2023/06/25 10:25:08;;;;;;;;;;;26.70;72.60;;;;;;7310222;19;9278;-75
2023/06/25 10:27:40;;;;;;;;;;;26.70;71.40;;;;;;7311341;19;10201;-75
2023/06/25 10:30:16;;;;;;;;;;;26.80;70.80;;;;;;7310785;19;9233;-76
2023/06/25 10:32:45;;;;;;;;;;;27.00;67.60;;;;;;7311107;19;9287;-75
2023/06/25 10:35:21;;;;;;;;;;;27.00;69.10;;;;;;7310567;19;9580;-75
2023/06/25 10:37:50;;;;;;;;;;;27.10;68.50;;;;;;7309457;19;9254;-75
2023/06/25 10:40:20;;;;;;;;;;;27.30;67.20;;;;;;7311415;19;9128;-75
2023/06/25 10:42:51;;;;;;;;;;;27.30;68.80;;;;;;7312878;19;9255;-75
2023/06/25 10:45:20;;;;;;;;;;;27.20;69.90;;;;;;7310268;19;9361;-75
2023/06/25 10:47:50;;;;;;;;;;;27.10;68.80;;;;;;7310600;19;9384;-75
2023/06/25 10:50:20;;;;;;;;;;;27.10;68.00;;;;;;7313946;19;9302;-74
2023/06/25 10:52:49;;;;;;;;;;;27.20;66.90;;;;;;7308922;19;10313;-74
2023/06/25 10:55:18;;;;;;;;;;;27.30;67.60;;;;;;7310887;19;9270;-75
2023/06/25 10:57:47;;;;;;;;;;;27.30;62.50;;;;;;7313019;19;9282;-75
2023/06/25 11:00:22;;;;;;;;;;;27.30;63.00;;;;;;7312987;19;9241;-75
2023/06/25 11:02:55;;;;;;;;;;;27.20;64.90;;;;;;7311861;19;9241;-75
2023/06/25 11:05:34;;;;;;;;;;;27.20;67.50;;;;;;7312623;19;9478;-75
2023/06/25 11:08:07;;;;;;;;;;;27.10;67.70;;;;;;7309112;19;9496;-75
2023/06/25 11:10:38;;;;;;;;;;;27.20;66.10;;;;;;7310530;19;9555;-75
2023/06/25 11:13:10;;;;;;;;;;;27.30;64.20;;;;;;7311861;19;9273;-75
2023/06/25 11:15:43;;;;;;;;;;;27.30;66.90;;;;;;7310358;19;9356;-74
2023/06/25 11:18:12;;;;;;;;;;;27.30;66.20;;;;;;7307092;19;9265;-75
2023/06/25 11:20:43;;;;;;;;;;;27.50;63.90;;;;;;7310104;19;9408;-75
2023/06/25 11:23:12;;;;;;;;;;;27.50;62.70;;;;;;7308110;19;10960;-75
2023/06/25 11:25:41;;;;;;;;;;;27.70;63.50;;;;;;7307910;19;10622;-75
2023/06/25 11:28:11;;;;;;;;;;;27.90;64.50;;;;;;7310155;19;9591;-75
2023/06/25 11:30:45;;;;;;;;;;;27.90;65.10;;;;;;7308306;19;9404;-75
2023/06/25 11:33:18;;;;;;;;;;;27.80;63.50;;;;;;7308506;19;9068;-75
2023/06/25 11:35:50;;;;;;;;;;;27.80;62.00;;;;;;7309213;19;9605;-75
2023/06/25 11:38:27;;;;;;;;;;;27.90;60.50;;;;;;7308212;19;8990;-75
2023/06/25 11:40:59;;;;;;;;;;;28.00;62.60;;;;;;7308368;19;9250;-75
2023/06/25 11:43:30;;;;;;;;;;;28.10;62.10;;;;;;7309943;19;9257;-75
2023/06/25 11:46:05;;;;;;;;;;;27.90;62.60;;;;;;7307160;19;10086;-75
2023/06/25 11:48:34;;;;;;;;;;;27.80;63.50;;;;;;7310820;19;9253;-75
2023/06/25 11:51:08;;;;;;;;;;;27.80;63.60;;;;;;7311791;19;9000;-74
2023/06/25 11:53:37;;;;;;;;;;;27.60;64.20;;;;;;7309940;19;9836;-74
2023/06/25 11:56:07;;;;;;;;;;;27.50;65.30;;;;;;7307117;19;9253;-75
2023/06/25 11:58:36;;;;;;;;;;;27.50;65.50;;;;;;7309136;19;8945;-75
2023/06/25 12:01:09;;;;;;;;;;;27.50;66.00;;;;;;7307477;19;9265;-75
2023/06/25 12:03:38;;;;;;;;;;;27.40;65.80;;;;;;7309088;19;9269;-75
2023/06/25 12:06:07;;;;;;;;;;;27.40;63.80;;;;;;7306593;19;8944;-75
2023/06/25 12:08:37;;;;;;;;;;;27.50;62.90;;;;;;7308770;19;9254;-75
2023/06/25 12:11:06;;;;;;;;;;;27.60;64.80;;;;;;7307762;19;9270;-75
2023/06/25 12:13:35;;;;;;;;;;;27.70;61.90;;;;;;7309238;19;9475;-75
2023/06/25 12:16:07;;;;;;;;;;;27.70;61.30;;;;;;7307900;19;9161;-75
2023/06/25 12:18:36;;;;;;;;;;;27.80;59.10;;;;;;7307874;19;9151;-75
2023/06/25 12:21:05;;;;;;;;;;;27.90;63.20;;;;;;7308327;19;9257;-75
2023/06/25 12:23:34;;;;;;;;;;;28.00;62.50;;;;;;7310143;19;11054;-76
2023/06/25 12:26:03;;;;;;;;;;;28.10;59.90;;;;;;7308156;19;9249;-75
2023/06/25 12:28:33;;;;;;;;;;;28.00;62.10;;;;;;7308953;19;9249;-75
2023/06/25 12:31:02;;;;;;;;;;;27.90;63.50;;;;;;7308272;19;9238;-75
2023/06/25 12:33:34;;;;;;;;;;;27.80;63.80;;;;;;7309083;19;9277;-75
2023/06/25 12:36:03;;;;;;;;;;;27.90;63.80;;;;;;7309638;19;9286;-75
2023/06/25 12:38:32;;;;;;;;;;;27.90;63.80;;;;;;7307802;19;9447;-75
2023/06/25 12:41:01;;;;;;;;;;;28.10;61.40;;;;;;7307568;19;9254;-76
2023/06/25 12:43:30;;;;;;;;;;;28.20;60.00;;;;;;7306707;19;9402;-75
2023/06/25 12:45:59;;;;;;;;;;;28.20;61.70;;;;;;7306850;19;9473;-75
2023/06/25 12:48:28;;;;;;;;;;;28.00;62.30;;;;;;7305496;19;10066;-75
2023/06/25 12:51:00;;;;;;;;;;;28.10;62.20;;;;;;7310613;19;9535;-74
2023/06/25 12:53:29;;;;;;;;;;;28.30;61.70;;;;;;7306396;19;9268;-75
2023/06/25 12:55:58;;;;;;;;;;;28.20;62.40;;;;;;7305935;19;9113;-76
2023/06/25 12:58:27;;;;;;;;;;;28.40;59.40;;;;;;7305603;19;9591;-75
2023/06/25 13:00:56;;;;;;;;;;;28.50;60.20;;;;;;7305111;19;9498;-75
2023/06/25 13:03:25;;;;;;;;;;;28.50;61.20;;;;;;7308385;19;9256;-74
2023/06/25 13:05:54;;;;;;;;;;;28.40;60.90;;;;;;7306014;19;9383;-75
2023/06/25 13:08:27;;;;;;;;;;;28.40;60.80;;;;;;7308243;19;11494;-75
2023/06/25 13:10:57;;;;;;;;;;;28.50;60.50;;;;;;7305042;19;9333;-75
2023/06/25 13:13:26;;;;;;;;;;;28.60;58.50;;;;;;7306827;19;10143;-76
2023/06/25 13:15:55;;;;;;;;;;;28.80;58.60;;;;;;7304262;19;9257;-75
2023/06/25 13:18:24;;;;;;;;;;;28.80;59.20;;;;;;7305215;19;9344;-75
2023/06/25 13:20:53;;;;;;;;;;;28.80;59.80;;;;;;7303567;19;9265;-75
2023/06/25 13:23:22;;;;;;;;;;;28.80;60.10;;;;;;7306139;19;9476;-75
2023/06/25 13:25:54;;;;;;;;;;;28.60;60.90;;;;;;7304323;19;9274;-75
2023/06/25 13:28:24;;;;;;;;;;;28.50;61.40;;;;;;7305258;19;9314;-75
2023/06/25 13:30:53;;;;;;;;;;;28.30;62.00;;;;;;7305674;19;8944;-74
2023/06/25 13:33:23;;;;;;;;;;;28.00;62.80;;;;;;7305455;19;9368;-74
2023/06/25 13:35:52;;;;;;;;;;;27.90;63.10;;;;;;7307871;19;9406;-75
2023/06/25 13:38:21;;;;;;;;;;;27.80;63.50;;;;;;7302922;19;9287;-75
2023/06/25 13:40:50;;;;;;;;;;;27.90;62.80;;;;;;7305736;19;9402;-75
2023/06/25 13:43:22;;;;;;;;;;;28.10;63.20;;;;;;7305359;19;10947;-75
2023/06/25 13:45:51;;;;;;;;;;;28.30;62.20;;;;;;7305909;19;9463;-76
2023/06/25 13:48:20;;;;;;;;;;;28.70;60.70;;;;;;7304064;19;9279;-74
2023/06/25 13:50:49;;;;;;;;;;;28.80;60.90;;;;;;7308094;19;9375;-75
2023/06/25 13:53:19;;;;;;;;;;;28.60;61.30;;;;;;7305367;19;9316;-74
2023/06/25 13:55:48;;;;;;;;;;;28.40;62.30;;;;;;7304293;19;9467;-74
2023/06/25 13:58:17;;;;;;;;;;;28.20;62.80;;;;;;7315328;19;10651;-74
2023/06/25 14:00:51;;;;;;;;;;;28.30;61.80;;;;;;7307201;19;9219;-75
2023/06/25 14:03:21;;;;;;;;;;;28.30;62.10;;;;;;7306761;19;9252;-75
2023/06/25 14:05:50;;;;;;;;;;;28.50;60.00;;;;;;7303463;19;9624;-74
2023/06/25 14:08:19;;;;;;;;;;;28.70;60.90;;;;;;7304412;19;9302;-74
2023/06/25 14:10:48;;;;;;;;;;;28.70;61.60;;;;;;7304641;19;9486;-75
2023/06/25 14:13:20;;;;;;;;;;;28.60;58.70;;;;;;7305286;19;9436;-75
2023/06/25 14:15:52;;;;;;;;;;;28.60;58.70;;;;;;7305127;19;9278;-75
2023/06/25 14:18:22;;;;;;;;;;;28.60;61.60;;;;;;7303825;19;9305;-75
2023/06/25 14:20:51;;;;;;;;;;;28.50;61.70;;;;;;7304968;19;9421;-75
2023/06/25 14:23:21;;;;;;;;;;;28.30;62.30;;;;;;7304820;19;11220;-75
2023/06/25 14:25:52;;;;;;;;;;;28.20;62.90;;;;;;7304815;19;9317;-74
2023/06/25 14:28:21;;;;;;;;;;;28.10;62.80;;;;;;7309878;19;9537;-74
2023/06/25 14:30:52;;;;;;;;;;;28.20;60.50;;;;;;7312998;19;9399;-75
2023/06/25 14:33:21;;;;;;;;;;;28.40;59.50;;;;;;7310805;19;9261;-74
2023/06/25 14:35:51;;;;;;;;;;;28.60;60.00;;;;;;7311866;19;9355;-74
2023/06/25 14:38:20;;;;;;;;;;;28.50;60.90;;;;;;7310391;19;9310;-75
2023/06/25 14:40:49;;;;;;;;;;;28.50;59.50;;;;;;7309857;19;9241;-75
2023/06/25 14:43:18;;;;;;;;;;;28.50;59.90;;;;;;7313419;19;9487;-75
2023/06/25 14:45:47;;;;;;;;;;;28.70;60.20;;;;;;7310255;19;10646;-75